sensor_id;sensor_type;location;lat;lon;timestamp;P1;durP1;ratioP1;P2;durP2;ratioP2
9384;SDS011;4732;49.340;10.886;2023-04-25T03:00:26;7.10;;;6.30;;
9384;SDS011;4732;49.340;10.886;2023-04-25T03:02:51;10.33;;;7.00;;
9384;SDS011;4732;49.340;10.886;2023-04-25T03:05:17;6.97;;;5.13;;
9384;SDS011;4732;49.340;10.886;2023-04-25T03:07:43;5.20;;;4.70;;
9384;SDS011;4732;49.340;10.886;2023-04-25T03:10:09;5.40;;;4.90;;
9384;SDS011;4732;49.340;10.886;2023-04-25T03:12:35;5.47;;;4.80;;
9384;SDS011;4732;49.340;10.886;2023-04-25T03:15:01;5.87;;;4.90;;
9384;SDS011;4732;49.340;10.886;2023-04-25T03:17:27;6.30;;;5.30;;
9384;SDS011;4732;49.340;10.886;2023-04-25T03:19:54;6.67;;;5.20;;
9384;SDS011;4732;49.340;10.886;2023-04-25T03:22:20;6.53;;;4.90;;
9384;SDS011;4732;49.340;10.886;2023-04-25T03:24:46;6.13;;;4.70;;
9384;SDS011;4732;49.340;10.886;2023-04-25T03:27:12;7.10;;;5.00;;
9384;SDS011;4732;49.340;10.886;2023-04-25T03:29:37;5.90;;;5.23;;
9384;SDS011;4732;49.340;10.886;2023-04-25T03:32:03;6.27;;;4.80;;
9384;SDS011;4732;49.340;10.886;2023-04-25T03:34:29;5.00;;;4.50;;
9384;SDS011;4732;49.340;10.886;2023-04-25T03:36:54;5.37;;;4.50;;
9384;SDS011;4732;49.340;10.886;2023-04-25T03:39:20;5.50;;;5.00;;
9384;SDS011;4732;49.340;10.886;2023-04-25T03:41:46;8.77;;;5.43;;
9384;SDS011;4732;49.340;10.886;2023-04-25T03:44:11;8.30;;;3.93;;
9384;SDS011;4732;49.340;10.886;2023-04-25T03:46:37;5.53;;;4.30;;
9384;SDS011;4732;49.340;10.886;2023-04-25T03:49:02;5.10;;;4.13;;
9384;SDS011;4732;49.340;10.886;2023-04-25T03:51:27;6.07;;;4.97;;
9384;SDS011;4732;49.340;10.886;2023-04-25T03:53:53;4.77;;;4.07;;
9384;SDS011;4732;49.340;10.886;2023-04-25T03:56:19;5.03;;;4.27;;
9384;SDS011;4732;49.340;10.886;2023-04-25T03:58:45;5.63;;;4.33;;
9384;SDS011;4732;49.340;10.886;2023-04-25T04:01:10;4.63;;;4.10;;
9384;SDS011;4732;49.340;10.886;2023-04-25T04:03:36;5.23;;;4.30;;
9384;SDS011;4732;49.340;10.886;2023-04-25T04:06:02;4.93;;;4.10;;
9384;SDS011;4732;49.340;10.886;2023-04-25T04:08:29;5.63;;;4.37;;
9384;SDS011;4732;49.340;10.886;2023-04-25T04:10:55;4.37;;;3.93;;
9384;SDS011;4732;49.340;10.886;2023-04-25T04:13:20;6.43;;;4.60;;
9384;SDS011;4732;49.340;10.886;2023-04-25T04:15:46;5.43;;;4.00;;
9384;SDS011;4732;49.340;10.886;2023-04-25T04:18:11;7.43;;;4.23;;
9384;SDS011;4732;49.340;10.886;2023-04-25T04:20:37;5.17;;;4.40;;
9384;SDS011;4732;49.340;10.886;2023-04-25T04:23:02;5.80;;;4.47;;
9384;SDS011;4732;49.340;10.886;2023-04-25T04:25:28;4.20;;;3.80;;
9384;SDS011;4732;49.340;10.886;2023-04-25T04:27:55;7.77;;;4.63;;
9384;SDS011;4732;49.340;10.886;2023-04-25T04:30:24;5.67;;;4.60;;
9384;SDS011;4732;49.340;10.886;2023-04-25T04:32:50;6.37;;;4.60;;
9384;SDS011;4732;49.340;10.886;2023-04-25T04:35:16;5.20;;;4.33;;
9384;SDS011;4732;49.340;10.886;2023-04-25T04:37:42;4.93;;;4.40;;
9384;SDS011;4732;49.340;10.886;2023-04-25T04:40:09;8.37;;;5.40;;
9384;SDS011;4732;49.340;10.886;2023-04-25T04:42:34;8.23;;;4.70;;
9384;SDS011;4732;49.340;10.886;2023-04-25T04:45:01;5.87;;;4.60;;
9384;SDS011;4732;49.340;10.886;2023-04-25T04:47:27;4.60;;;4.20;;
9384;SDS011;4732;49.340;10.886;2023-04-25T04:49:56;5.30;;;4.67;;
9384;SDS011;4732;49.340;10.886;2023-04-25T04:52:22;5.50;;;4.80;;
9384;SDS011;4732;49.340;10.886;2023-04-25T04:54:47;5.60;;;4.20;;
9384;SDS011;4732;49.340;10.886;2023-04-25T04:57:13;5.13;;;4.63;;
9384;SDS011;4732;49.340;10.886;2023-04-25T04:59:38;6.23;;;4.87;;
9384;SDS011;4732;49.340;10.886;2023-04-25T05:02:04;6.87;;;4.97;;
9384;SDS011;4732;49.340;10.886;2023-04-25T05:04:29;7.17;;;4.73;;
9384;SDS011;4732;49.340;10.886;2023-04-25T05:06:55;5.77;;;5.17;;
9384;SDS011;4732;49.340;10.886;2023-04-25T05:09:20;8.87;;;4.90;;
9384;SDS011;4732;49.340;10.886;2023-04-25T05:11:50;5.73;;;4.73;;
9384;SDS011;4732;49.340;10.886;2023-04-25T05:14:16;6.60;;;4.73;;
9384;SDS011;4732;49.340;10.886;2023-04-25T05:16:42;5.30;;;4.80;;
9384;SDS011;4732;49.340;10.886;2023-04-25T05:19:08;6.23;;;5.50;;
9384;SDS011;4732;49.340;10.886;2023-04-25T05:21:33;7.70;;;5.83;;
9384;SDS011;4732;49.340;10.886;2023-04-25T05:23:59;5.73;;;5.10;;
9384;SDS011;4732;49.340;10.886;2023-04-25T05:26:25;5.73;;;5.13;;
9384;SDS011;4732;49.340;10.886;2023-04-25T05:28:50;6.00;;;4.93;;
9384;SDS011;4732;49.340;10.886;2023-04-25T05:31:16;6.17;;;4.70;;
9384;SDS011;4732;49.340;10.886;2023-04-25T05:33:42;6.47;;;5.00;;
9384;SDS011;4732;49.340;10.886;2023-04-25T05:36:07;5.63;;;5.00;;
9384;SDS011;4732;49.340;10.886;2023-04-25T05:38:33;5.80;;;5.07;;
9384;SDS011;4732;49.340;10.886;2023-04-25T05:40:58;6.17;;;5.00;;
9384;SDS011;4732;49.340;10.886;2023-04-25T05:43:24;5.67;;;5.07;;
9384;SDS011;4732;49.340;10.886;2023-04-25T05:45:49;5.37;;;4.87;;
9384;SDS011;4732;49.340;10.886;2023-04-25T05:48:15;6.73;;;5.33;;
9384;SDS011;4732;49.340;10.886;2023-04-25T05:50:40;7.90;;;5.07;;
9384;SDS011;4732;49.340;10.886;2023-04-25T05:53:06;6.40;;;5.67;;
9384;SDS011;4732;49.340;10.886;2023-04-25T05:55:31;6.30;;;5.50;;
9384;SDS011;4732;49.340;10.886;2023-04-25T05:57:57;10.07;;;5.27;;
9384;SDS011;4732;49.340;10.886;2023-04-25T06:00:22;6.70;;;5.60;;
9384;SDS011;4732;49.340;10.886;2023-04-25T06:02:48;5.93;;;5.27;;
9384;SDS011;4732;49.340;10.886;2023-04-25T06:05:14;5.87;;;5.33;;
9384;SDS011;4732;49.340;10.886;2023-04-25T06:07:40;5.93;;;5.33;;
9384;SDS011;4732;49.340;10.886;2023-04-25T06:10:05;5.90;;;4.87;;
9384;SDS011;4732;49.340;10.886;2023-04-25T06:12:32;7.60;;;5.90;;
9384;SDS011;4732;49.340;10.886;2023-04-25T06:14:58;7.17;;;5.90;;
9384;SDS011;4732;49.340;10.886;2023-04-25T06:17:24;6.90;;;5.60;;
9384;SDS011;4732;49.340;10.886;2023-04-25T06:19:49;8.03;;;5.93;;
9384;SDS011;4732;49.340;10.886;2023-04-25T06:22:15;6.00;;;5.40;;
9384;SDS011;4732;49.340;10.886;2023-04-25T06:24:40;7.03;;;5.50;;
9384;SDS011;4732;49.340;10.886;2023-04-25T06:27:06;6.73;;;5.57;;
9384;SDS011;4732;49.340;10.886;2023-04-25T06:29:31;9.73;;;6.40;;
9384;SDS011;4732;49.340;10.886;2023-04-25T06:31:57;6.60;;;6.00;;
9384;SDS011;4732;49.340;10.886;2023-04-25T06:34:22;6.67;;;5.83;;
9384;SDS011;4732;49.340;10.886;2023-04-25T06:36:48;8.50;;;6.57;;
9384;SDS011;4732;49.340;10.886;2023-04-25T06:39:13;6.90;;;6.20;;
9384;SDS011;4732;49.340;10.886;2023-04-25T06:41:39;8.13;;;6.67;;
9384;SDS011;4732;49.340;10.886;2023-04-25T06:44:05;7.40;;;6.33;;
9384;SDS011;4732;49.340;10.886;2023-04-25T06:46:30;7.37;;;6.20;;
9384;SDS011;4732;49.340;10.886;2023-04-25T06:48:56;7.20;;;6.20;;
9384;SDS011;4732;49.340;10.886;2023-04-25T06:51:21;8.77;;;7.07;;
9384;SDS011;4732;49.340;10.886;2023-04-25T06:53:49;6.80;;;6.10;;
9384;SDS011;4732;49.340;10.886;2023-04-25T06:56:14;6.47;;;5.80;;
9384;SDS011;4732;49.340;10.886;2023-04-25T06:58:41;7.97;;;7.17;;
9384;SDS011;4732;49.340;10.886;2023-04-25T07:01:06;7.33;;;6.57;;
9384;SDS011;4732;49.340;10.886;2023-04-25T07:03:31;7.93;;;6.77;;
9384;SDS011;4732;49.340;10.886;2023-04-25T07:05:57;7.83;;;6.93;;
9384;SDS011;4732;49.340;10.886;2023-04-25T07:08:22;7.83;;;7.03;;
9384;SDS011;4732;49.340;10.886;2023-04-25T07:10:48;8.40;;;7.27;;
9384;SDS011;4732;49.340;10.886;2023-04-25T07:13:13;7.47;;;6.63;;
9384;SDS011;4732;49.340;10.886;2023-04-25T07:15:39;7.57;;;6.83;;
9384;SDS011;4732;49.340;10.886;2023-04-25T07:18:05;7.00;;;6.30;;
9384;SDS011;4732;49.340;10.886;2023-04-25T07:20:30;7.40;;;6.37;;
9384;SDS011;4732;49.340;10.886;2023-04-25T07:22:56;7.63;;;6.60;;
9384;SDS011;4732;49.340;10.886;2023-04-25T07:25:22;6.97;;;5.77;;
9384;SDS011;4732;49.340;10.886;2023-04-25T07:27:47;7.00;;;5.50;;
9384;SDS011;4732;49.340;10.886;2023-04-25T07:30:13;8.37;;;6.30;;
9384;SDS011;4732;49.340;10.886;2023-04-25T07:32:39;6.57;;;5.57;;
9384;SDS011;4732;49.340;10.886;2023-04-25T07:35:05;7.77;;;6.13;;
9384;SDS011;4732;49.340;10.886;2023-04-25T07:37:32;6.63;;;5.40;;
9384;SDS011;4732;49.340;10.886;2023-04-25T07:39:58;6.93;;;5.50;;
9384;SDS011;4732;49.340;10.886;2023-04-25T07:42:23;7.07;;;4.77;;
9384;SDS011;4732;49.340;10.886;2023-04-25T07:44:49;6.27;;;4.77;;
9384;SDS011;4732;49.340;10.886;2023-04-25T07:47:16;6.93;;;4.70;;
9384;SDS011;4732;49.340;10.886;2023-04-25T07:49:43;5.00;;;4.50;;
9384;SDS011;4732;49.340;10.886;2023-04-25T07:52:10;5.27;;;4.77;;
9384;SDS011;4732;49.340;10.886;2023-04-25T07:54:36;5.30;;;4.77;;
9384;SDS011;4732;49.340;10.886;2023-04-25T07:57:01;7.50;;;5.03;;
9384;SDS011;4732;49.340;10.886;2023-04-25T07:59:27;7.77;;;4.47;;
9384;SDS011;4732;49.340;10.886;2023-04-25T08:01:53;7.07;;;5.00;;
9384;SDS011;4732;49.340;10.886;2023-04-25T08:04:18;4.87;;;4.33;;
9384;SDS011;4732;49.340;10.886;2023-04-25T08:06:44;5.90;;;4.70;;
9384;SDS011;4732;49.340;10.886;2023-04-25T08:09:10;4.97;;;4.40;;
9384;SDS011;4732;49.340;10.886;2023-04-25T08:11:35;6.53;;;4.97;;
9384;SDS011;4732;49.340;10.886;2023-04-25T08:14:01;5.30;;;4.63;;
9384;SDS011;4732;49.340;10.886;2023-04-25T08:16:27;5.00;;;4.50;;
9384;SDS011;4732;49.340;10.886;2023-04-25T08:18:53;5.73;;;4.90;;
9384;SDS011;4732;49.340;10.886;2023-04-25T08:21:18;4.97;;;4.47;;
9384;SDS011;4732;49.340;10.886;2023-04-25T08:23:45;5.73;;;5.10;;
9384;SDS011;4732;49.340;10.886;2023-04-25T08:26:10;5.23;;;4.73;;
9384;SDS011;4732;49.340;10.886;2023-04-25T08:28:36;5.37;;;4.57;;
9384;SDS011;4732;49.340;10.886;2023-04-25T08:31:01;6.17;;;4.93;;
9384;SDS011;4732;49.340;10.886;2023-04-25T08:33:27;4.60;;;4.03;;
9384;SDS011;4732;49.340;10.886;2023-04-25T08:35:52;4.53;;;3.70;;
9384;SDS011;4732;49.340;10.886;2023-04-25T08:38:19;6.03;;;4.43;;
9384;SDS011;4732;49.340;10.886;2023-04-25T08:40:46;4.50;;;3.70;;
9384;SDS011;4732;49.340;10.886;2023-04-25T08:43:15;6.27;;;4.30;;
9384;SDS011;4732;49.340;10.886;2023-04-25T08:45:43;6.43;;;3.97;;
9384;SDS011;4732;49.340;10.886;2023-04-25T08:48:13;4.97;;;3.60;;
9384;SDS011;4732;49.340;10.886;2023-04-25T08:50:50;5.80;;;4.60;;
9384;SDS011;4732;49.340;10.886;2023-04-25T08:53:22;5.23;;;4.73;;
9384;SDS011;4732;49.340;10.886;2023-04-25T08:55:52;6.30;;;4.40;;
9384;SDS011;4732;49.340;10.886;2023-04-25T08:58:19;6.47;;;4.27;;
9384;SDS011;4732;49.340;10.886;2023-04-25T09:00:48;5.60;;;4.97;;
9384;SDS011;4732;49.340;10.886;2023-04-25T09:03:14;7.07;;;5.03;;
9384;SDS011;4732;49.340;10.886;2023-04-25T09:05:41;6.95;;;5.25;;
9384;SDS011;4732;49.340;10.886;2023-04-25T09:08:07;5.38;;;4.85;;
9384;SDS011;4732;49.340;10.886;2023-04-25T09:10:33;4.38;;;3.97;;
9384;SDS011;4732;49.340;10.886;2023-04-25T09:15:34;7.75;;;4.78;;
9384;SDS011;4732;49.340;10.886;2023-04-25T09:18:28;7.13;;;4.85;;
9384;SDS011;4732;49.340;10.886;2023-04-25T09:20:56;5.65;;;4.40;;
9384;SDS011;4732;49.340;10.886;2023-04-25T09:23:29;6.07;;;4.72;;
9384;SDS011;4732;49.340;10.886;2023-04-25T09:25:54;7.03;;;4.80;;
9384;SDS011;4732;49.340;10.886;2023-04-25T09:28:24;6.10;;;5.50;;
9384;SDS011;4732;49.340;10.886;2023-04-25T09:30:56;7.95;;;5.43;;
9384;SDS011;4732;49.340;10.886;2023-04-25T09:33:26;6.25;;;5.47;;
9384;SDS011;4732;49.340;10.886;2023-04-25T09:36:04;7.75;;;5.80;;
9384;SDS011;4732;49.340;10.886;2023-04-25T09:38:32;6.43;;;4.50;;
9384;SDS011;4732;49.340;10.886;2023-04-25T09:41:05;6.97;;;5.15;;
9384;SDS011;4732;49.340;10.886;2023-04-25T09:43:30;6.50;;;5.15;;
9384;SDS011;4732;49.340;10.886;2023-04-25T09:45:56;5.97;;;4.65;;
9384;SDS011;4732;49.340;10.886;2023-04-25T09:48:24;6.80;;;4.90;;
9384;SDS011;4732;49.340;10.886;2023-04-25T09:51:07;5.47;;;4.97;;
9384;SDS011;4732;49.340;10.886;2023-04-25T09:53:43;6.40;;;3.97;;
9384;SDS011;4732;49.340;10.886;2023-04-25T09:56:11;5.63;;;5.07;;
9384;SDS011;4732;49.340;10.886;2023-04-25T09:58:38;6.95;;;4.40;;
9384;SDS011;4732;49.340;10.886;2023-04-25T10:01:05;7.38;;;4.30;;
9384;SDS011;4732;49.340;10.886;2023-04-25T10:03:33;4.88;;;4.38;;
9384;SDS011;4732;49.340;10.886;2023-04-25T10:06:00;7.20;;;3.80;;
9384;SDS011;4732;49.340;10.886;2023-04-25T10:08:29;4.95;;;3.50;;
9384;SDS011;4732;49.340;10.886;2023-04-25T10:10:59;5.60;;;3.72;;
9384;SDS011;4732;49.340;10.886;2023-04-25T10:13:27;6.25;;;3.35;;
9384;SDS011;4732;49.340;10.886;2023-04-25T10:15:54;4.72;;;3.30;;
9384;SDS011;4732;49.340;10.886;2023-04-25T10:18:22;4.47;;;3.55;;
9384;SDS011;4732;49.340;10.886;2023-04-25T10:20:49;7.03;;;3.53;;
9384;SDS011;4732;49.340;10.886;2023-04-25T10:23:15;6.55;;;3.60;;
9384;SDS011;4732;49.340;10.886;2023-04-25T10:25:42;6.05;;;3.67;;
9384;SDS011;4732;49.340;10.886;2023-04-25T10:28:08;4.78;;;3.10;;
9384;SDS011;4732;49.340;10.886;2023-04-25T10:30:33;4.70;;;3.15;;
9384;SDS011;4732;49.340;10.886;2023-04-25T10:32:59;5.30;;;3.10;;
9384;SDS011;4732;49.340;10.886;2023-04-25T10:35:28;4.05;;;2.80;;
9384;SDS011;4732;49.340;10.886;2023-04-25T10:37:59;3.90;;;3.05;;
9384;SDS011;4732;49.340;10.886;2023-04-25T10:40:35;5.82;;;3.55;;
9384;SDS011;4732;49.340;10.886;2023-04-25T10:44:01;4.25;;;3.17;;
9384;SDS011;4732;49.340;10.886;2023-04-25T10:45:55;4.15;;;3.20;;
9384;SDS011;4732;49.340;10.886;2023-04-25T10:48:25;6.88;;;3.50;;
9384;SDS011;4732;49.340;10.886;2023-04-25T10:51:06;6.45;;;3.13;;
9384;SDS011;4732;49.340;10.886;2023-04-25T10:53:33;3.88;;;3.10;;
9384;SDS011;4732;49.340;10.886;2023-04-25T10:55:59;5.03;;;3.13;;
9384;SDS011;4732;49.340;10.886;2023-04-25T10:58:24;5.13;;;3.30;;
9384;SDS011;4732;49.340;10.886;2023-04-25T11:00:51;4.25;;;3.05;;
9384;SDS011;4732;49.340;10.886;2023-04-25T11:03:16;5.85;;;3.22;;
9384;SDS011;4732;49.340;10.886;2023-04-25T11:05:46;4.55;;;3.63;;
9384;SDS011;4732;49.340;10.886;2023-04-25T11:08:14;6.25;;;3.25;;
9384;SDS011;4732;49.340;10.886;2023-04-25T11:10:49;4.82;;;3.13;;
9384;SDS011;4732;49.340;10.886;2023-04-25T11:13:15;4.85;;;3.20;;
9384;SDS011;4732;49.340;10.886;2023-04-25T11:15:40;4.65;;;3.30;;
9384;SDS011;4732;49.340;10.886;2023-04-25T11:18:06;5.13;;;3.03;;
9384;SDS011;4732;49.340;10.886;2023-04-25T11:20:31;5.60;;;3.20;;
9384;SDS011;4732;49.340;10.886;2023-04-25T11:22:57;5.75;;;2.97;;
9384;SDS011;4732;49.340;10.886;2023-04-25T11:25:26;4.40;;;2.72;;
9384;SDS011;4732;49.340;10.886;2023-04-25T11:27:53;4.65;;;2.85;;
9384;SDS011;4732;49.340;10.886;2023-04-25T11:30:25;5.15;;;2.70;;
9384;SDS011;4732;49.340;10.886;2023-04-25T11:32:52;4.20;;;2.40;;
9384;SDS011;4732;49.340;10.886;2023-04-25T11:35:18;3.88;;;2.25;;
9384;SDS011;4732;49.340;10.886;2023-04-25T11:37:45;3.05;;;2.20;;
9384;SDS011;4732;49.340;10.886;2023-04-25T11:40:11;4.32;;;2.55;;
9384;SDS011;4732;49.340;10.886;2023-04-25T11:42:43;3.80;;;2.55;;
9384;SDS011;4732;49.340;10.886;2023-04-25T11:45:09;5.72;;;2.35;;
9384;SDS011;4732;49.340;10.886;2023-04-25T11:47:35;3.65;;;2.00;;
9384;SDS011;4732;49.340;10.886;2023-04-25T11:50:02;2.75;;;1.80;;
9384;SDS011;4732;49.340;10.886;2023-04-25T11:52:36;2.55;;;1.70;;
9384;SDS011;4732;49.340;10.886;2023-04-25T11:55:14;3.85;;;2.00;;
9384;SDS011;4732;49.340;10.886;2023-04-25T11:57:41;2.50;;;1.80;;
9384;SDS011;4732;49.340;10.886;2023-04-25T12:02:57;3.60;;;1.77;;
9384;SDS011;4732;49.340;10.886;2023-04-25T12:05:24;2.05;;;1.83;;
9384;SDS011;4732;49.340;10.886;2023-04-25T12:07:51;1.98;;;1.55;;
9384;SDS011;4732;49.340;10.886;2023-04-25T12:10:17;2.40;;;1.50;;
9384;SDS011;4732;49.340;10.886;2023-04-25T12:12:44;2.38;;;1.67;;
9384;SDS011;4732;49.340;10.886;2023-04-25T12:15:14;1.85;;;1.58;;
9384;SDS011;4732;49.340;10.886;2023-04-25T12:17:49;2.22;;;1.88;;
9384;SDS011;4732;49.340;10.886;2023-04-25T12:20:19;2.17;;;1.40;;
9384;SDS011;4732;49.340;10.886;2023-04-25T12:22:48;2.28;;;2.05;;
9384;SDS011;4732;49.340;10.886;2023-04-25T12:28:16;1.70;;;1.60;;
9384;SDS011;4732;49.340;10.886;2023-04-25T12:31:03;3.08;;;1.58;;
9384;SDS011;4732;49.340;10.886;2023-04-25T12:33:31;2.80;;;1.58;;
9384;SDS011;4732;49.340;10.886;2023-04-25T12:35:57;2.13;;;1.52;;
9384;SDS011;4732;49.340;10.886;2023-04-25T12:38:27;2.88;;;1.70;;
9384;SDS011;4732;49.340;10.886;2023-04-25T12:40:55;3.85;;;2.00;;
9384;SDS011;4732;49.340;10.886;2023-04-25T12:43:21;2.03;;;1.70;;
9384;SDS011;4732;49.340;10.886;2023-04-25T12:45:51;2.63;;;1.92;;
9384;SDS011;4732;49.340;10.886;2023-04-25T12:48:18;2.17;;;1.98;;
9384;SDS011;4732;49.340;10.886;2023-04-25T12:50:44;2.92;;;2.15;;
9384;SDS011;4732;49.340;10.886;2023-04-25T12:53:13;1.88;;;1.45;;
9384;SDS011;4732;49.340;10.886;2023-04-25T12:55:38;2.17;;;1.80;;
9384;SDS011;4732;49.340;10.886;2023-04-25T12:58:04;3.03;;;1.65;;
9384;SDS011;4732;49.340;10.886;2023-04-25T13:00:29;3.05;;;2.17;;
9384;SDS011;4732;49.340;10.886;2023-04-25T13:02:55;2.47;;;1.80;;
9384;SDS011;4732;49.340;10.886;2023-04-25T13:05:21;2.20;;;2.00;;
9384;SDS011;4732;49.340;10.886;2023-04-25T13:07:46;3.72;;;2.05;;
9384;SDS011;4732;49.340;10.886;2023-04-25T13:10:12;2.97;;;2.28;;
9384;SDS011;4732;49.340;10.886;2023-04-25T13:12:38;2.92;;;1.95;;
9384;SDS011;4732;49.340;10.886;2023-04-25T13:15:03;4.45;;;1.92;;
9384;SDS011;4732;49.340;10.886;2023-04-25T13:17:29;3.30;;;2.00;;
9384;SDS011;4732;49.340;10.886;2023-04-25T13:19:55;2.22;;;1.80;;
9384;SDS011;4732;49.340;10.886;2023-04-25T13:22:20;3.38;;;2.05;;
9384;SDS011;4732;49.340;10.886;2023-04-25T13:24:46;3.03;;;2.03;;
9384;SDS011;4732;49.340;10.886;2023-04-25T13:27:12;2.08;;;1.88;;
9384;SDS011;4732;49.340;10.886;2023-04-25T13:29:38;3.00;;;2.28;;
9384;SDS011;4732;49.340;10.886;2023-04-25T13:32:05;2.10;;;1.90;;
9384;SDS011;4732;49.340;10.886;2023-04-25T13:34:31;3.75;;;2.05;;
9384;SDS011;4732;49.340;10.886;2023-04-25T13:36:56;5.35;;;2.25;;
9384;SDS011;4732;49.340;10.886;2023-04-25T13:39:22;3.47;;;2.00;;
9384;SDS011;4732;49.340;10.886;2023-04-25T13:41:47;3.92;;;2.42;;
9384;SDS011;4732;49.340;10.886;2023-04-25T13:44:13;3.85;;;2.33;;
9384;SDS011;4732;49.340;10.886;2023-04-25T13:46:38;3.92;;;2.45;;
9384;SDS011;4732;49.340;10.886;2023-04-25T13:49:04;4.07;;;2.60;;
9384;SDS011;4732;49.340;10.886;2023-04-25T13:51:30;2.55;;;2.13;;
9384;SDS011;4732;49.340;10.886;2023-04-25T13:53:56;3.35;;;2.72;;
9384;SDS011;4732;49.340;10.886;2023-04-25T13:56:21;3.55;;;2.70;;
9384;SDS011;4732;49.340;10.886;2023-04-25T13:58:48;4.50;;;2.42;;
9384;SDS011;4732;49.340;10.886;2023-04-25T14:01:17;3.83;;;2.25;;
9384;SDS011;4732;49.340;10.886;2023-04-25T14:03:43;3.97;;;2.67;;
9384;SDS011;4732;49.340;10.886;2023-04-25T14:06:09;3.55;;;2.33;;
9384;SDS011;4732;49.340;10.886;2023-04-25T14:08:36;4.20;;;2.58;;
9384;SDS011;4732;49.340;10.886;2023-04-25T14:11:01;5.18;;;2.22;;
9384;SDS011;4732;49.340;10.886;2023-04-25T14:13:28;3.88;;;2.20;;
9384;SDS011;4732;49.340;10.886;2023-04-25T14:15:53;3.33;;;2.55;;
9384;SDS011;4732;49.340;10.886;2023-04-25T14:18:19;3.50;;;2.70;;
9384;SDS011;4732;49.340;10.886;2023-04-25T14:20:45;5.75;;;2.20;;
9384;SDS011;4732;49.340;10.886;2023-04-25T14:23:11;2.20;;;2.00;;
9384;SDS011;4732;49.340;10.886;2023-04-25T14:25:36;2.30;;;2.03;;
9384;SDS011;4732;49.340;10.886;2023-04-25T14:28:02;3.80;;;2.40;;
9384;SDS011;4732;49.340;10.886;2023-04-25T14:30:28;6.88;;;2.35;;
9384;SDS011;4732;49.340;10.886;2023-04-25T14:32:54;3.97;;;2.30;;
9384;SDS011;4732;49.340;10.886;2023-04-25T14:35:19;4.72;;;2.45;;
9384;SDS011;4732;49.340;10.886;2023-04-25T14:37:45;3.55;;;2.30;;
9384;SDS011;4732;49.340;10.886;2023-04-25T14:40:11;11.38;;;2.60;;
9384;SDS011;4732;49.340;10.886;2023-04-25T14:42:38;11.45;;;5.65;;
9384;SDS011;4732;49.340;10.886;2023-04-25T14:45:06;4.00;;;2.83;;
9384;SDS011;4732;49.340;10.886;2023-04-25T14:47:33;3.58;;;2.88;;
9384;SDS011;4732;49.340;10.886;2023-04-25T14:49:59;4.65;;;2.58;;
9384;SDS011;4732;49.340;10.886;2023-04-25T14:52:26;3.65;;;2.70;;
9384;SDS011;4732;49.340;10.886;2023-04-25T14:54:52;4.35;;;2.58;;
9384;SDS011;4732;49.340;10.886;2023-04-25T14:57:17;7.45;;;3.08;;
9384;SDS011;4732;49.340;10.886;2023-04-25T14:59:43;4.55;;;3.08;;
9384;SDS011;4732;49.340;10.886;2023-04-25T15:02:09;5.30;;;2.83;;
9384;SDS011;4732;49.340;10.886;2023-04-25T15:04:35;6.40;;;3.08;;
9384;SDS011;4732;49.340;10.886;2023-04-25T15:07:01;4.00;;;3.00;;
9384;SDS011;4732;49.340;10.886;2023-04-25T15:09:26;5.03;;;2.70;;
9384;SDS011;4732;49.340;10.886;2023-04-25T15:11:52;5.00;;;3.22;;
9384;SDS011;4732;49.340;10.886;2023-04-25T15:14:17;5.90;;;2.90;;
9384;SDS011;4732;49.340;10.886;2023-04-25T15:16:43;4.53;;;2.90;;
9384;SDS011;4732;49.340;10.886;2023-04-25T15:19:08;5.03;;;2.85;;
9384;SDS011;4732;49.340;10.886;2023-04-25T15:21:34;3.97;;;2.80;;
9384;SDS011;4732;49.340;10.886;2023-04-25T15:24:00;5.60;;;3.13;;
9384;SDS011;4732;49.340;10.886;2023-04-25T15:26:26;4.50;;;2.65;;
9384;SDS011;4732;49.340;10.886;2023-04-25T15:28:52;5.43;;;2.88;;
9384;SDS011;4732;49.340;10.886;2023-04-25T15:31:17;4.63;;;2.88;;
9384;SDS011;4732;49.340;10.886;2023-04-25T15:33:43;6.80;;;3.17;;
9384;SDS011;4732;49.340;10.886;2023-04-25T15:36:08;4.35;;;3.15;;
9384;SDS011;4732;49.340;10.886;2023-04-25T15:38:35;4.25;;;3.03;;
9384;SDS011;4732;49.340;10.886;2023-04-25T15:41:01;3.20;;;2.90;;
9384;SDS011;4732;49.340;10.886;2023-04-25T15:43:26;6.82;;;3.45;;
9384;SDS011;4732;49.340;10.886;2023-04-25T15:45:52;3.58;;;3.17;;
9384;SDS011;4732;49.340;10.886;2023-04-25T15:48:18;4.28;;;2.97;;
9384;SDS011;4732;49.340;10.886;2023-04-25T15:50:44;5.55;;;2.80;;
9384;SDS011;4732;49.340;10.886;2023-04-25T15:53:09;4.75;;;2.92;;
9384;SDS011;4732;49.340;10.886;2023-04-25T15:55:35;3.63;;;2.95;;
9384;SDS011;4732;49.340;10.886;2023-04-25T15:58:01;3.63;;;3.10;;
9384;SDS011;4732;49.340;10.886;2023-04-25T16:00:26;6.65;;;3.00;;
9384;SDS011;4732;49.340;10.886;2023-04-25T16:02:52;5.00;;;3.10;;
9384;SDS011;4732;49.340;10.886;2023-04-25T16:05:18;4.55;;;2.75;;
9384;SDS011;4732;49.340;10.886;2023-04-25T16:07:44;5.05;;;3.00;;
9384;SDS011;4732;49.340;10.886;2023-04-25T16:10:11;7.30;;;3.10;;
9384;SDS011;4732;49.340;10.886;2023-04-25T16:12:37;4.03;;;3.03;;
9384;SDS011;4732;49.340;10.886;2023-04-25T16:15:06;3.63;;;2.60;;
9384;SDS011;4732;49.340;10.886;2023-04-25T16:17:32;4.57;;;2.70;;
9384;SDS011;4732;49.340;10.886;2023-04-25T16:19:57;3.67;;;2.60;;
9384;SDS011;4732;49.340;10.886;2023-04-25T16:22:25;4.50;;;3.17;;
9384;SDS011;4732;49.340;10.886;2023-04-25T16:24:51;5.00;;;3.20;;
9384;SDS011;4732;49.340;10.886;2023-04-25T16:27:17;3.35;;;2.60;;
9384;SDS011;4732;49.340;10.886;2023-04-25T16:29:42;5.75;;;3.22;;
9384;SDS011;4732;49.340;10.886;2023-04-25T16:32:08;4.63;;;2.80;;
9384;SDS011;4732;49.340;10.886;2023-04-25T16:34:33;3.90;;;2.75;;
9384;SDS011;4732;49.340;10.886;2023-04-25T16:36:59;4.32;;;2.88;;
9384;SDS011;4732;49.340;10.886;2023-04-25T16:39:25;4.40;;;2.92;;
9384;SDS011;4732;49.340;10.886;2023-04-25T16:41:50;3.22;;;2.72;;
9384;SDS011;4732;49.340;10.886;2023-04-25T16:44:17;3.85;;;3.00;;
9384;SDS011;4732;49.340;10.886;2023-04-25T16:46:42;6.50;;;3.72;;
9384;SDS011;4732;49.340;10.886;2023-04-25T16:49:08;3.53;;;3.22;;
9384;SDS011;4732;49.340;10.886;2023-04-25T16:51:34;4.95;;;3.50;;
9384;SDS011;4732;49.340;10.886;2023-04-25T16:54:00;4.80;;;3.47;;
9384;SDS011;4732;49.340;10.886;2023-04-25T16:56:25;4.32;;;3.05;;
9384;SDS011;4732;49.340;10.886;2023-04-25T16:58:51;5.03;;;3.00;;
9384;SDS011;4732;49.340;10.886;2023-04-25T17:01:17;5.22;;;3.00;;
9384;SDS011;4732;49.340;10.886;2023-04-25T17:03:44;4.82;;;2.63;;
9384;SDS011;4732;49.340;10.886;2023-04-25T17:06:10;4.53;;;2.92;;
9384;SDS011;4732;49.340;10.886;2023-04-25T17:08:36;5.65;;;2.78;;
9384;SDS011;4732;49.340;10.886;2023-04-25T17:11:02;5.20;;;2.85;;
9384;SDS011;4732;49.340;10.886;2023-04-25T17:13:28;3.97;;;2.40;;
9384;SDS011;4732;49.340;10.886;2023-04-25T17:15:54;6.80;;;2.85;;
9384;SDS011;4732;49.340;10.886;2023-04-25T17:18:20;4.43;;;2.50;;
9384;SDS011;4732;49.340;10.886;2023-04-25T17:20:46;3.73;;;2.30;;
9384;SDS011;4732;49.340;10.886;2023-04-25T17:23:12;5.30;;;2.50;;
9384;SDS011;4732;49.340;10.886;2023-04-25T17:25:37;3.67;;;2.53;;
9384;SDS011;4732;49.340;10.886;2023-04-25T17:28:03;4.20;;;2.42;;
9384;SDS011;4732;49.340;10.886;2023-04-25T17:30:29;3.80;;;2.60;;
9384;SDS011;4732;49.340;10.886;2023-04-25T17:32:54;5.18;;;2.67;;
9384;SDS011;4732;49.340;10.886;2023-04-25T17:35:20;3.88;;;2.30;;
9384;SDS011;4732;49.340;10.886;2023-04-25T17:37:47;3.75;;;2.25;;
9384;SDS011;4732;49.340;10.886;2023-04-25T17:40:12;2.88;;;2.20;;
9384;SDS011;4732;49.340;10.886;2023-04-25T17:42:38;5.20;;;2.20;;
9384;SDS011;4732;49.340;10.886;2023-04-25T17:45:05;3.85;;;2.60;;
9384;SDS011;4732;49.340;10.886;2023-04-25T17:47:31;5.20;;;2.40;;
9384;SDS011;4732;49.340;10.886;2023-04-25T17:49:57;3.33;;;2.33;;
9384;SDS011;4732;49.340;10.886;2023-04-25T17:52:23;4.07;;;2.50;;
9384;SDS011;4732;49.340;10.886;2023-04-25T17:54:49;4.70;;;2.08;;
9384;SDS011;4732;49.340;10.886;2023-04-25T17:57:15;5.78;;;2.20;;
9384;SDS011;4732;49.340;10.886;2023-04-25T17:59:41;3.45;;;2.20;;
9384;SDS011;4732;49.340;10.886;2023-04-25T18:02:07;3.72;;;2.03;;
9384;SDS011;4732;49.340;10.886;2023-04-25T18:04:33;4.03;;;2.08;;